Time;durP1;ratioP1;P1;durP2;ratioP2;P2;SDS_P1;SDS_P2;PMS_P1;PMS_P2;Temp;Humidity;BMP_temperature;BMP_pressure;BME280_temperature;BME280_humidity;BME280_pressure;Samples;Min_cycle;Max_cycle;Signal;HPM_P1;HPM_P2
2022/10/18 00:01:19;;;;;;;;;10.00;9.00;;;;;22.72;59.96;101615.23;105714;1288;20908;-57
2022/10/18 00:03:47;;;;;;;;;13.00;11.50;;;;;22.73;59.88;101612.30;105715;1281;19805;-56
2022/10/18 00:06:14;;;;;;;;;11.00;10.00;;;;;22.72;59.83;101611.65;105746;1294;18168;-53
2022/10/18 00:08:41;;;;;;;;;12.00;10.00;;;;;22.73;59.86;101612.64;105762;1287;19915;-56
2022/10/18 00:11:08;;;;;;;;;10.00;10.00;;;;;22.72;59.83;101612.39;105693;1282;18491;-55
2022/10/18 00:13:36;;;;;;;;;10.00;7.00;;;;;22.72;59.72;101613.05;105684;1286;19476;-55
2022/10/18 00:16:03;;;;;;;;;11.00;9.00;;;;;22.72;59.95;101611.08;105731;1288;19945;-57
2022/10/18 00:18:30;;;;;;;;;14.00;11.00;;;;;22.72;59.72;101608.17;105687;1296;18453;-56
2022/10/18 00:20:57;;;;;;;;;9.00;9.00;;;;;22.72;59.64;101609.67;105754;1286;22845;-55
2022/10/18 00:23:25;;;;;;;;;11.00;10.00;;;;;22.73;59.66;101610.83;105648;1294;18497;-61
2022/10/18 00:25:52;;;;;;;;;11.00;10.00;;;;;22.72;59.63;101610.15;105676;1279;18123;-56
2022/10/18 00:28:19;;;;;;;;;12.00;10.00;;;;;22.72;59.70;101609.60;105681;1279;19776;-55
2022/10/18 00:30:46;;;;;;;;;11.00;10.00;;;;;22.72;59.70;101610.11;105703;1278;23189;-56
2022/10/18 00:33:14;;;;;;;;;9.00;9.00;;;;;22.72;59.63;101609.46;105672;1282;18434;-55
2022/10/18 00:35:41;;;;;;;;;13.00;12.00;;;;;22.72;59.61;101613.42;105803;1280;19357;-56
2022/10/18 00:38:08;;;;;;;;;7.00;6.50;;;;;22.72;59.53;101613.08;105700;1295;21658;-58
2022/10/18 00:40:35;;;;;;;;;11.00;10.00;;;;;22.72;59.65;101617.80;105724;1282;20642;-58
2022/10/18 00:43:02;;;;;;;;;14.00;11.00;;;;;22.72;59.51;101619.33;105743;1281;19794;-52
2022/10/18 00:45:30;;;;;;;;;7.00;6.00;;;;;22.72;59.48;101615.83;105737;1295;20155;-55
2022/10/18 00:47:57;;;;;;;;;7.00;7.00;;;;;22.71;59.54;101613.17;105770;1295;18467;-56
2022/10/18 00:50:24;;;;;;;;;10.00;9.00;;;;;22.71;59.59;101610.99;105763;1288;19615;-57
2022/10/18 00:52:52;;;;;;;;;10.00;10.00;;;;;22.71;59.58;101610.81;105672;1271;20914;-55
2022/10/18 00:55:19;;;;;;;;;10.00;9.00;;;;;22.71;59.52;101606.99;105669;1289;20013;-57
2022/10/18 00:57:46;;;;;;;;;10.50;9.50;;;;;22.71;59.33;101610.61;105724;1284;21244;-56
2022/10/18 01:00:13;;;;;;;;;;;;;;;22.71;59.39;101607.13;105759;1286;23557;-57
2022/10/18 01:02:40;;;;;;;;;12.00;12.00;;;;;22.71;59.40;101609.33;105804;1294;18484;-58
2022/10/18 01:05:08;;;;;;;;;10.00;10.00;;;;;22.71;59.34;101603.37;105737;1295;17989;-56
2022/10/18 01:07:35;;;;;;;;;9.00;7.00;;;;;22.71;59.38;101604.46;105708;1294;18591;-57
2022/10/18 01:10:03;;;;;;;;;11.00;10.50;;;;;22.71;59.39;101608.63;105740;1281;18490;-55
2022/10/18 01:12:31;;;;;;;;;9.00;7.00;;;;;22.71;59.43;101604.42;105669;1281;19804;-56
2022/10/18 01:14:59;;;;;;;;;10.00;9.00;;;;;22.71;59.36;101600.98;105704;1282;19112;-54
2022/10/18 01:17:26;;;;;;;;;10.00;9.00;;;;;22.70;59.42;101601.25;105758;1296;21892;-55
2022/10/18 01:19:53;;;;;;;;;10.50;10.00;;;;;22.71;59.24;101598.83;105685;1294;17960;-55
2022/10/18 01:22:20;;;;;;;;;9.67;9.00;;;;;22.70;59.33;101598.41;105684;1294;19149;-55
2022/10/18 01:24:48;;;;;;;;;9.00;9.00;;;;;22.71;59.28;101599.20;105722;1284;21142;-56
2022/10/18 01:27:15;;;;;;;;;10.00;10.00;;;;;22.70;59.39;101598.14;105753;1280;19349;-56
2022/10/18 01:29:42;;;;;;;;;9.50;9.00;;;;;22.71;59.23;101597.38;105770;1294;20014;-57
2022/10/18 01:32:09;;;;;;;;;10.00;10.00;;;;;22.71;59.20;101600.44;105747;1294;19049;-56
2022/10/18 01:34:37;;;;;;;;;14.00;11.00;;;;;22.70;59.26;101604.36;105681;1286;20588;-56
2022/10/18 01:37:04;;;;;;;;;;;;;;;22.70;59.05;101612.25;105746;1280;18512;-56
2022/10/18 01:39:31;;;;;;;;;;;;;;;22.70;58.78;101610.37;105701;1279;20271;-57
2022/10/18 01:41:58;;;;;;;;;11.00;10.00;;;;;22.70;59.13;101615.63;105778;1273;17512;-54
2022/10/18 01:44:26;;;;;;;;;11.50;10.50;;;;;22.70;59.14;101618.60;105734;1279;18805;-56
2022/10/18 01:46:53;;;;;;;;;10.00;9.00;;;;;22.70;59.00;101616.62;105710;1281;18472;-56
2022/10/18 01:49:20;;;;;;;;;;;;;;;22.71;58.82;101607.77;105663;1274;23132;-56
2022/10/18 01:51:47;;;;;;;;;10.00;9.00;;;;;22.69;58.99;101606.48;105701;1280;18593;-55
2022/10/18 01:54:14;;;;;;;;;8.00;7.00;;;;;22.70;58.96;101601.86;105661;1303;17720;-55
2022/10/18 01:56:42;;;;;;;;;12.00;12.00;;;;;22.70;59.01;101603.06;105662;1288;21632;-58
2022/10/18 01:59:09;;;;;;;;;10.00;10.00;;;;;22.70;58.93;101601.86;105674;1285;18497;-57
2022/10/18 02:01:36;;;;;;;;;9.50;9.50;;;;;22.68;58.98;101601.45;105680;1296;20139;-56
2022/10/18 02:04:03;;;;;;;;;7.00;7.00;;;;;22.70;58.94;101603.48;105655;1296;17793;-52
2022/10/18 02:06:31;;;;;;;;;11.00;9.00;;;;;22.70;59.00;101608.42;105622;1297;19129;-54
2022/10/18 02:08:58;;;;;;;;;10.00;10.00;;;;;22.70;58.91;101610.02;105675;1278;19843;-55
2022/10/18 02:11:25;;;;;;;;;;;;;;;22.70;58.93;101606.77;105678;1300;21746;-53
2022/10/18 02:13:52;;;;;;;;;10.00;10.00;;;;;22.70;58.91;101606.92;105681;1290;20171;-53
2022/10/18 02:16:20;;;;;;;;;8.00;7.00;;;;;22.70;58.87;101606.02;105679;1297;19589;-54
2022/10/18 02:18:47;;;;;;;;;10.00;10.00;;;;;22.69;58.75;101610.09;105686;1281;19752;-53
2022/10/18 02:21:14;;;;;;;;;10.00;9.00;;;;;22.70;58.77;101612.79;105685;1295;20206;-56
2022/10/18 02:23:41;;;;;;;;;8.00;8.00;;;;;22.70;58.83;101614.23;105731;1296;18825;-56
2022/10/18 02:26:09;;;;;;;;;11.00;11.00;;;;;22.68;58.80;101611.46;105634;1282;19137;-55
2022/10/18 02:28:36;;;;;;;;;9.50;9.00;;;;;22.69;58.56;101610.92;105637;1274;21896;-55
2022/10/18 02:31:03;;;;;;;;;12.00;11.00;;;;;22.69;58.71;101606.48;105670;1274;22740;-54
2022/10/18 02:33:30;;;;;;;;;10.00;9.00;;;;;22.69;58.53;101603.95;105665;1281;19537;-53
2022/10/18 02:35:58;;;;;;;;;10.00;10.00;;;;;22.70;58.82;101604.42;105720;1297;20231;-55
2022/10/18 02:38:25;;;;;;;;;10.00;9.00;;;;;22.68;58.69;101609.32;105720;1294;18701;-56
2022/10/18 02:40:52;;;;;;;;;9.00;9.00;;;;;22.68;58.59;101615.31;105724;1296;18720;-55
2022/10/18 02:43:19;;;;;;;;;14.00;10.00;;;;;22.69;58.59;101611.73;105676;1288;21982;-55
2022/10/18 02:45:47;;;;;;;;;13.00;10.50;;;;;22.68;58.75;101612.55;105681;1288;22331;-54
2022/10/18 02:48:14;;;;;;;;;9.00;9.00;;;;;22.68;58.59;101615.66;105671;1278;19465;-54
2022/10/18 02:50:41;;;;;;;;;11.00;11.00;;;;;22.68;58.61;101617.34;105715;1290;20060;-55
2022/10/18 02:53:08;;;;;;;;;9.50;9.50;;;;;22.68;58.62;101621.34;105718;1291;19909;-53
2022/10/18 02:55:35;;;;;;;;;10.50;10.00;;;;;22.68;58.70;101621.30;105694;1297;19173;-54
2022/10/18 02:58:03;;;;;;;;;15.50;12.00;;;;;22.68;58.71;101621.76;105695;1281;23300;-56
2022/10/18 03:00:30;;;;;;;;;12.00;10.00;;;;;22.68;58.49;101628.65;105687;1291;19999;-54
2022/10/18 03:02:57;;;;;;;;;10.00;9.00;;;;;22.69;58.64;101626.77;105718;1290;20183;-55
2022/10/18 03:05:24;;;;;;;;;10.50;9.00;;;;;22.69;58.59;101624.38;105726;1273;18631;-55
2022/10/18 03:07:52;;;;;;;;;9.50;9.50;;;;;22.68;58.56;101625.71;105675;1298;18861;-56
2022/10/18 03:10:19;;;;;;;;;10.00;9.00;;;;;22.68;58.59;101635.21;105696;1280;21458;-55
2022/10/18 03:12:46;;;;;;;;;11.00;10.00;;;;;22.68;58.55;101637.20;105698;1296;18501;-53
2022/10/18 03:15:13;;;;;;;;;10.00;9.00;;;;;22.67;58.60;101638.89;105669;1280;20206;-53
2022/10/18 03:17:41;;;;;;;;;9.00;7.00;;;;;22.68;58.52;101646.82;105680;1296;19470;-55
2022/10/18 03:20:08;;;;;;;;;9.50;9.00;;;;;22.68;58.65;101650.52;105615;1296;18472;-55
2022/10/18 03:22:35;;;;;;;;;7.00;6.00;;;;;22.68;58.65;101648.33;105710;1297;18128;-56
2022/10/18 03:25:02;;;;;;;;;7.00;7.00;;;;;22.68;58.59;101648.46;105684;1295;20094;-54
2022/10/18 03:27:30;;;;;;;;;9.00;7.00;;;;;22.68;58.55;101646.10;105647;1283;20268;-56
2022/10/18 03:29:58;;;;;;;;;6.50;6.50;;;;;22.68;58.77;101640.47;105718;1290;19481;-54
2022/10/18 03:32:25;;;;;;;;;6.00;6.00;;;;;22.68;58.63;101645.18;105672;1296;21786;-56
2022/10/18 03:34:52;;;;;;;;;7.00;7.00;;;;;22.68;58.62;101643.95;105655;1280;19354;-53
2022/10/18 03:37:19;;;;;;;;;10.00;9.00;;;;;22.68;58.82;101644.67;105682;1288;18121;-55
2022/10/18 03:39:47;;;;;;;;;7.00;7.00;;;;;22.68;58.62;101637.90;105656;1281;19593;-55
2022/10/18 03:42:14;;;;;;;;;7.00;6.00;;;;;22.68;58.71;101642.35;105697;1291;18502;-56
2022/10/18 03:44:41;;;;;;;;;8.50;8.50;;;;;22.65;58.65;101646.41;105693;1281;22888;-56
2022/10/18 03:47:08;;;;;;;;;7.00;6.00;;;;;22.66;58.53;101649.05;105576;1280;17871;-53
2022/10/18 03:49:36;;;;;;;;;6.67;6.67;;;;;22.66;58.77;101645.39;105627;1274;18537;-53
2022/10/18 03:52:03;;;;;;;;;9.00;7.00;;;;;22.65;58.78;101646.57;105576;1296;19949;-56
2022/10/18 03:54:30;;;;;;;;;6.50;6.00;;;;;22.66;58.53;101645.77;105506;1282;17965;-56
2022/10/18 03:56:57;;;;;;;;;9.50;9.00;;;;;22.66;58.69;101645.02;105663;1296;19200;-57
2022/10/18 03:59:24;;;;;;;;;8.00;7.00;;;;;22.66;58.38;101644.50;105640;1296;19225;-55
2022/10/18 04:01:52;;;;;;;;;10.50;8.00;;;;;22.65;58.63;101643.67;105520;1274;20076;-53
2022/10/18 04:04:19;;;;;;;;;;;;;;;22.64;58.49;101639.36;105599;1280;18506;-51
2022/10/18 04:06:46;;;;;;;;;12.00;10.00;;;;;22.66;58.40;101640.64;105596;1274;20035;-54
2022/10/18 04:09:13;;;;;;;;;11.00;9.00;;;;;22.66;58.42;101638.31;105622;1288;18225;-55
2022/10/18 04:11:41;;;;;;;;;9.00;7.00;;;;;22.65;58.42;101639.14;105546;1288;20330;-56
2022/10/18 04:14:08;;;;;;;;;10.00;10.00;;;;;22.66;58.36;101637.02;105631;1274;22642;-55
2022/10/18 04:16:35;;;;;;;;;;;;;;;22.66;58.63;101634.48;105537;1274;17981;-53
2022/10/18 04:19:02;;;;;;;;;9.00;9.00;;;;;22.65;58.63;101638.73;105510;1281;19633;-55
2022/10/18 04:21:30;;;;;;;;;9.00;9.00;;;;;22.66;58.51;101641.25;105507;1274;20797;-55
2022/10/18 04:23:57;;;;;;;;;6.00;6.00;;;;;22.65;58.43;101641.31;105728;1290;19348;-54
2022/10/18 04:26:24;;;;;;;;;9.00;9.00;;;;;22.65;58.44;101643.64;105608;1296;18704;-54
2022/10/18 04:28:51;;;;;;;;;9.00;9.00;;;;;22.65;58.49;101641.35;105684;1274;19591;-55
2022/10/18 04:31:18;;;;;;;;;10.50;9.00;;;;;22.64;58.29;101638.70;105666;1281;21947;-55
2022/10/18 04:33:46;;;;;;;;;11.00;11.00;;;;;22.65;58.35;101645.52;105647;1281;19928;-53
2022/10/18 04:36:13;;;;;;;;;10.00;10.00;;;;;22.65;58.40;101647.36;105579;1288;18504;-54
2022/10/18 04:38:40;;;;;;;;;12.00;11.00;;;;;22.64;58.44;101655.39;105626;1290;19719;-55
2022/10/18 04:41:07;;;;;;;;;6.00;6.00;;;;;22.64;58.30;101657.60;105645;1281;20315;-56
2022/10/18 04:43:35;;;;;;;;;10.00;8.00;;;;;22.63;58.25;101658.96;105652;1297;20042;-54
2022/10/18 04:46:02;;;;;;;;;7.00;7.00;;;;;22.64;58.53;101659.10;105500;1277;18427;-56
2022/10/18 04:48:29;;;;;;;;;81.00;57.00;;;;;22.67;58.33;101653.69;105594;1280;19918;-56
2022/10/18 04:50:56;;;;;;;;;125.00;99.00;;;;;22.69;58.68;101648.70;105647;1282;20040;-53
2022/10/18 04:53:24;;;;;;;;;141.50;110.50;;;;;22.71;58.47;101646.52;105593;1274;18425;-55
2022/10/18 04:55:51;;;;;;;;;195.00;156.00;;;;;22.73;58.93;101650.73;105554;1274;20007;-53
2022/10/18 04:58:18;;;;;;;;;;;;;;;22.76;59.07;101653.97;105545;1272;20339;-54
2022/10/18 05:00:46;;;;;;;;;115.00;84.00;;;;;22.79;59.39;101648.89;105530;1274;19168;-51
2022/10/18 05:03:13;;;;;;;;;94.00;75.00;;;;;22.79;59.61;101650.02;105436;1296;18565;-52
2022/10/18 05:05:41;;;;;;;;;97.00;74.00;;;;;22.72;60.10;101648.79;105541;1288;22728;-55
2022/10/18 05:08:08;;;;;;;;;94.00;70.00;;;;;22.71;60.40;101651.41;105637;1290;18046;-55
2022/10/18 05:10:35;;;;;;;;;88.50;66.00;;;;;22.73;60.26;101649.44;105594;1282;19999;-54
2022/10/18 05:13:02;;;;;;;;;80.00;62.00;;;;;22.73;60.39;101645.81;105594;1281;20591;-53
2022/10/18 05:15:30;;;;;;;;;76.00;58.00;;;;;22.73;60.06;101639.15;105588;1296;18030;-56
2022/10/18 05:17:57;;;;;;;;;67.00;53.00;;;;;22.75;60.14;101647.20;105621;1296;20040;-57
2022/10/18 05:20:24;;;;;;;;;68.00;53.00;;;;;22.75;60.15;101645.49;105604;1280;19091;-56
2022/10/18 05:22:51;;;;;;;;;64.50;51.00;;;;;22.75;60.01;101642.96;105611;1282;21594;-57
2022/10/18 05:25:18;;;;;;;;;62.00;49.50;;;;;22.74;60.05;101651.61;105636;1281;18529;-57
2022/10/18 05:27:46;;;;;;;;;62.50;50.00;;;;;22.73;60.22;101649.27;105642;1296;18507;-57
2022/10/18 05:30:13;;;;;;;;;64.00;51.00;;;;;22.69;60.21;101653.65;105599;1272;18027;-57
2022/10/18 05:32:40;;;;;;;;;65.00;50.00;;;;;22.68;59.91;101657.24;105615;1281;23195;-56
2022/10/18 05:35:07;;;;;;;;;63.00;46.00;;;;;22.66;59.78;101659.46;105580;1274;18611;-52
2022/10/18 05:37:35;;;;;;;;;53.00;42.50;;;;;22.63;59.69;101657.44;105665;1290;19891;-57
2022/10/18 05:40:02;;;;;;;;;53.50;41.50;;;;;22.59;59.42;101656.90;105623;1296;18518;-54
2022/10/18 05:42:29;;;;;;;;;53.00;42.00;;;;;22.58;59.21;101658.07;105676;1274;19241;-56
2022/10/18 05:44:56;;;;;;;;;48.50;39.50;;;;;22.59;59.23;101659.65;105704;1294;18223;-56
2022/10/18 05:47:23;;;;;;;;;45.50;40.00;;;;;22.59;59.08;101657.27;105667;1274;19992;-55
2022/10/18 05:49:51;;;;;;;;;43.50;37.00;;;;;22.58;59.08;101658.27;105667;1295;20975;-56
2022/10/18 05:52:18;;;;;;;;;34.50;29.00;;;;;22.56;58.82;101666.67;105681;1297;18192;-56
2022/10/18 05:54:45;;;;;;;;;;;;;;;22.51;58.56;101673.45;105669;1290;20342;-56
2022/10/18 05:57:12;;;;;;;;;31.50;30.00;;;;;22.52;58.55;101668.40;105720;1286;20352;-57
2022/10/18 05:59:40;;;;;;;;;33.00;30.00;;;;;22.53;58.54;101670.83;105648;1279;23141;-57
2022/10/18 06:02:07;;;;;;;;;;;;;;;22.53;58.55;101674.35;105617;1288;20081;-54
2022/10/18 06:04:34;;;;;;;;;31.00;26.50;;;;;22.53;58.48;101674.50;105708;1272;19271;-55
2022/10/18 06:07:01;;;;;;;;;;;;;;;22.53;58.39;101679.05;105646;1274;20915;-56
2022/10/18 06:09:29;;;;;;;;;32.00;28.00;;;;;22.56;58.60;101681.16;105650;1272;19545;-53
2022/10/18 06:11:57;;;;;;;;;23.00;21.50;;;;;22.58;58.63;101684.31;105726;1295;18168;-54
2022/10/18 06:14:24;;;;;;;;;18.00;18.00;;;;;22.61;58.74;101686.77;105822;1290;19541;-57
2022/10/18 06:16:52;;;;;;;;;19.00;18.00;;;;;22.62;58.81;101689.95;105627;1274;20036;-52
2022/10/18 06:19:19;;;;;;;;;17.50;17.00;;;;;22.63;59.00;101693.77;105581;1280;20185;-54
2022/10/18 06:21:46;;;;;;;;;18.50;16.00;;;;;22.63;59.15;101691.41;105636;1280;20472;-55
2022/10/18 06:24:13;;;;;;;;;22.00;16.00;;;;;22.64;59.13;101688.59;105629;1282;18817;-55
2022/10/18 06:26:41;;;;;;;;;17.50;16.50;;;;;22.65;59.24;101697.06;105615;1288;22081;-56
2022/10/18 06:29:08;;;;;;;;;18.50;17.00;;;;;22.65;59.42;101693.92;105580;1281;19696;-56
2022/10/18 06:31:35;;;;;;;;;19.50;18.00;;;;;22.64;59.39;101695.11;105508;1281;19068;-54
2022/10/18 06:34:03;;;;;;;;;15.00;15.00;;;;;22.65;59.68;101693.92;105560;1281;20308;-57
2022/10/18 06:36:31;;;;;;;;;14.00;14.00;;;;;22.65;59.59;101693.00;105573;1288;20474;-56
2022/10/18 06:38:58;;;;;;;;;18.00;15.00;;;;;22.69;59.80;101695.05;105633;1280;21683;-55
2022/10/18 06:41:26;;;;;;;;;15.00;13.00;;;;;22.71;59.81;101696.45;105642;1289;19964;-56
2022/10/18 06:43:55;;;;;;;;;19.00;16.50;;;;;22.73;59.79;101701.36;105645;1274;19625;-54
2022/10/18 06:46:23;;;;;;;;;20.00;18.50;;;;;22.74;59.83;101699.83;105665;1274;23004;-56
2022/10/18 06:48:50;;;;;;;;;14.00;11.00;;;;;22.73;60.00;101706.21;105635;1280;20026;-54
2022/10/18 06:51:18;;;;;;;;;12.00;11.00;;;;;22.75;59.95;101707.51;105666;1275;19844;-55
2022/10/18 06:53:45;;;;;;;;;11.00;11.00;;;;;22.74;60.17;101709.19;105633;1290;20221;-54
2022/10/18 06:56:13;;;;;;;;;11.00;11.00;;;;;22.75;60.32;101703.72;105615;1281;18489;-55
2022/10/18 06:58:40;;;;;;;;;12.00;11.00;;;;;22.74;60.37;101701.70;105570;1280;19504;-57
2022/10/18 07:01:07;;;;;;;;;13.50;11.00;;;;;22.76;60.44;101706.42;105621;1296;18541;-52
2022/10/18 07:03:34;;;;;;;;;15.00;14.00;;;;;22.77;60.51;101708.34;105586;1290;20271;-56
2022/10/18 07:06:02;;;;;;;;;12.00;12.00;;;;;22.79;60.80;101719.48;105610;1290;18175;-56
2022/10/18 07:08:29;;;;;;;;;20.00;15.00;;;;;22.81;61.08;101725.27;105659;1280;20141;-55
2022/10/18 07:10:57;;;;;;;;;16.00;14.00;;;;;22.84;61.24;101727.86;105613;1287;20119;-56
2022/10/18 07:13:24;;;;;;;;;19.50;19.50;;;;;22.84;60.95;101731.86;105639;1296;18045;-54
2022/10/18 07:15:51;;;;;;;;;18.00;16.00;;;;;22.78;60.76;101731.55;105644;1297;20017;-55
2022/10/18 07:18:18;;;;;;;;;12.00;12.00;;;;;22.78;60.95;101728.44;105605;1281;19984;-53
2022/10/18 07:20:45;;;;;;;;;14.00;12.00;;;;;22.80;60.81;101722.66;105645;1296;18004;-55
2022/10/18 07:23:13;;;;;;;;;15.00;14.00;;;;;22.81;60.79;101719.07;105643;1299;18813;-52
2022/10/18 07:25:40;;;;;;;;;15.00;15.00;;;;;22.80;60.95;101730.93;105622;1280;32257;-56
2022/10/18 07:28:07;;;;;;;;;13.50;12.00;;;;;22.80;61.01;101726.93;105694;1291;19626;-55
2022/10/18 07:30:34;;;;;;;;;15.00;11.50;;;;;22.82;60.99;101723.52;105443;1274;20038;-57
2022/10/18 07:33:02;;;;;;;;;18.00;12.00;;;;;22.82;60.98;101730.62;105714;1271;19856;-54
2022/10/18 07:35:29;;;;;;;;;14.00;12.00;;;;;22.80;61.05;101723.17;105673;1279;21089;-55
2022/10/18 07:37:56;;;;;;;;;11.00;10.00;;;;;22.79;61.06;101712.92;105624;1282;20184;-53
2022/10/18 07:40:23;;;;;;;;;16.00;12.00;;;;;22.76;61.11;101718.14;105636;1295;18459;-54
2022/10/18 07:42:51;;;;;;;;;16.00;14.50;;;;;22.74;60.99;101718.96;105625;1296;18069;-55
2022/10/18 07:45:18;;;;;;;;;16.00;14.00;;;;;22.72;60.95;101724.23;105657;1300;18528;-56
2022/10/18 07:47:45;;;;;;;;;23.00;16.00;;;;;22.71;60.95;101723.75;105699;1274;23174;-53
2022/10/18 07:50:12;;;;;;;;;16.00;15.00;;;;;22.72;60.65;101733.54;105600;1274;23084;-56
2022/10/18 07:52:40;;;;;;;;;29.00;23.00;;;;;22.73;60.68;101734.33;105494;1280;22140;-55
2022/10/18 07:55:07;;;;;;;;;83.00;62.00;;;;;22.75;60.56;101732.58;105532;1280;20295;-55
2022/10/18 07:57:34;;;;;;;;;93.00;64.00;;;;;22.76;60.48;101732.77;105512;1280;18023;-56
2022/10/18 08:00:01;;;;;;;;;88.00;64.00;;;;;22.76;60.33;101735.02;105578;1288;20417;-54
2022/10/18 08:02:29;;;;;;;;;90.00;66.00;;;;;22.77;60.32;101733.92;105530;1280;20083;-53
2022/10/18 08:04:56;;;;;;;;;80.00;57.50;;;;;22.77;60.22;101732.93;105513;1278;19684;-53
2022/10/18 08:07:23;;;;;;;;;82.00;56.00;;;;;22.77;60.29;101733.65;105540;1280;20030;-57
2022/10/18 08:09:50;;;;;;;;;67.00;50.00;;;;;22.78;60.18;101725.80;105586;1273;18489;-55
2022/10/18 08:12:18;;;;;;;;;59.00;45.00;;;;;22.78;60.23;101723.89;105576;1288;22041;-55
2022/10/18 08:14:45;;;;;;;;;59.50;45.50;;;;;22.78;60.52;101726.45;105627;1297;20321;-53
2022/10/18 08:17:13;;;;;;;;;51.00;41.00;;;;;22.80;60.46;101731.67;105663;1294;18694;-52
2022/10/18 08:19:40;;;;;;;;;49.00;39.00;;;;;22.80;60.55;101733.48;105647;1280;19736;-54
2022/10/18 08:22:07;;;;;;;;;34.00;27.00;;;;;22.80;60.60;101730.97;105685;1286;20166;-53
2022/10/18 08:24:34;;;;;;;;;31.00;25.00;;;;;22.80;60.74;101727.30;105692;1272;19983;-56
2022/10/18 08:27:02;;;;;;;;;28.50;24.50;;;;;22.81;60.72;101722.63;105650;1296;22044;-55
2022/10/18 08:29:29;;;;;;;;;30.00;24.00;;;;;22.83;60.90;101720.42;105648;1280;19115;-54
2022/10/18 08:31:56;;;;;;;;;31.00;26.00;;;;;22.85;60.94;101714.58;105644;1281;22271;-55
2022/10/18 08:34:24;;;;;;;;;29.00;23.00;;;;;22.86;60.91;101718.63;105640;1296;18042;-54
2022/10/18 08:36:51;;;;;;;;;24.50;19.50;;;;;22.87;60.92;101724.95;105592;1280;20341;-57
2022/10/18 08:39:18;;;;;;;;;22.00;19.00;;;;;22.88;60.95;101725.93;105613;1274;19915;-58
2022/10/18 08:41:45;;;;;;;;;19.00;18.00;;;;;22.90;61.04;101719.30;105685;1274;18217;-57
2022/10/18 08:44:13;;;;;;;;;;;;;;;22.88;60.99;101713.86;105620;1282;21008;-58
2022/10/18 08:46:40;;;;;;;;;18.00;14.00;;;;;22.86;61.16;101705.67;105610;1274;20645;-56
2022/10/18 08:49:07;;;;;;;;;16.00;15.00;;;;;22.86;61.06;101712.23;105580;1297;18023;-57
2022/10/18 08:51:34;;;;;;;;;15.00;14.00;;;;;22.88;61.34;101713.02;105562;1288;20271;-57
2022/10/18 08:54:02;;;;;;;;;18.00;16.00;;;;;22.93;61.46;101704.10;105596;1284;20275;-57
2022/10/18 08:56:29;;;;;;;;;18.50;14.00;;;;;22.98;61.34;101698.27;105536;1280;21599;-57
2022/10/18 08:58:56;;;;;;;;;14.00;13.00;;;;;22.94;61.20;101705.05;105602;1282;21453;-55
2022/10/18 09:01:23;;;;;;;;;15.00;15.00;;;;;22.91;61.38;101691.02;105576;1280;18686;-57
2022/10/18 09:03:51;;;;;;;;;14.00;14.00;;;;;22.88;61.47;101680.00;105657;1282;17973;-57
2022/10/18 09:06:18;;;;;;;;;14.00;12.00;;;;;22.87;61.33;101675.73;105564;1274;18853;-56
2022/10/18 09:08:45;;;;;;;;;16.00;14.00;;;;;22.88;61.40;101680.05;105620;1287;20368;-55
2022/10/18 09:11:12;;;;;;;;;25.00;23.00;;;;;22.85;61.09;101680.11;105651;1281;18263;-55
2022/10/18 09:13:40;;;;;;;;;24.00;19.00;;;;;22.82;61.03;101680.54;105657;1280;21471;-56
2022/10/18 09:16:07;;;;;;;;;24.00;20.50;;;;;22.77;60.89;101677.41;105715;1295;19961;-56
2022/10/18 09:18:34;;;;;;;;;31.00;25.00;;;;;22.75;60.98;101675.46;105661;1295;18357;-57
2022/10/18 09:21:01;;;;;;;;;34.00;29.00;;;;;22.73;60.66;101669.63;105682;1288;20482;-56
2022/10/18 09:23:28;;;;;;;;;24.00;23.00;;;;;22.71;60.48;101669.86;105637;1295;22424;-55
2022/10/18 09:25:56;;;;;;;;;32.00;27.00;;;;;22.67;60.30;101664.59;105614;1279;21979;-56
2022/10/18 09:28:23;;;;;;;;;;;;;;;22.64;60.31;101661.50;105624;1280;18510;-56
2022/10/18 09:30:50;;;;;;;;;31.00;29.00;;;;;22.62;60.07;101661.63;105680;1297;18475;-57
2022/10/18 09:33:17;;;;;;;;;32.50;28.00;;;;;22.60;60.05;101664.02;105706;1288;19734;-56
2022/10/18 09:35:45;;;;;;;;;27.00;24.00;;;;;22.61;59.84;101667.30;105665;1296;18640;-54
2022/10/18 09:38:12;;;;;;;;;32.00;25.00;;;;;22.61;59.92;101667.13;105648;1282;21856;-53
2022/10/18 09:40:39;;;;;;;;;34.50;27.50;;;;;22.58;59.58;101669.03;105609;1288;20426;-52
2022/10/18 09:43:06;;;;;;;;;32.00;24.00;;;;;22.57;59.53;101663.87;105674;1296;18815;-54
2022/10/18 09:45:34;;;;;;;;;32.00;29.50;;;;;22.58;59.59;101670.39;105676;1287;21278;-56
2022/10/18 09:48:01;;;;;;;;;33.50;31.00;;;;;22.57;59.33;101671.55;105674;1295;18962;-57
2022/10/18 09:50:29;;;;;;;;;34.50;28.00;;;;;22.56;59.48;101665.85;105692;1271;18483;-56
2022/10/18 09:52:56;;;;;;;;;33.00;26.00;;;;;22.55;59.32;101665.92;105675;1274;21593;-55
2022/10/18 09:55:23;;;;;;;;;29.00;27.00;;;;;22.55;59.42;101664.05;105679;1282;18146;-51
2022/10/18 09:57:51;;;;;;;;;29.00;27.00;;;;;22.55;59.45;101672.89;105684;1274;19887;-56
2022/10/18 10:00:18;;;;;;;;;35.00;28.00;;;;;22.54;59.29;101669.54;105628;1274;19890;-56
2022/10/18 10:02:45;;;;;;;;;27.50;27.50;;;;;22.53;59.44;101667.95;105690;1290;19419;-55
2022/10/18 10:05:12;;;;;;;;;29.50;26.50;;;;;22.54;59.22;101663.88;105677;1274;20203;-56
2022/10/18 10:07:39;;;;;;;;;36.00;31.00;;;;;22.53;59.11;101666.67;105641;1274;19218;-55
2022/10/18 10:10:07;;;;;;;;;25.00;24.00;;;;;22.53;59.08;101669.75;105625;1297;19412;-52
2022/10/18 10:12:35;;;;;;;;;40.50;36.00;;;;;22.53;59.13;101665.75;105644;1282;22550;-56
2022/10/18 10:15:02;;;;;;;;;30.00;28.00;;;;;22.52;59.12;101666.94;105629;1296;20220;-54
2022/10/18 10:17:29;;;;;;;;;;;;;;;22.53;59.18;101663.80;105586;1276;19538;-57
2022/10/18 10:19:56;;;;;;;;;31.50;30.00;;;;;22.51;59.26;101655.19;105618;1295;19135;-56
2022/10/18 10:22:24;;;;;;;;;41.50;36.50;;;;;22.51;59.17;101653.58;105602;1296;19257;-56
2022/10/18 10:24:51;;;;;;;;;28.00;27.00;;;;;22.52;59.18;101654.40;105580;1282;21500;-55
2022/10/18 10:27:18;;;;;;;;;35.00;31.00;;;;;22.50;59.29;101647.34;105588;1282;19624;-52
2022/10/18 10:29:46;;;;;;;;;35.00;34.00;;;;;22.47;59.39;101649.33;105640;1296;19134;-54
2022/10/18 10:32:13;;;;;;;;;30.50;26.50;;;;;22.47;59.40;101648.28;105602;1279;19513;-54
2022/10/18 10:34:40;;;;;;;;;27.00;26.00;;;;;22.50;59.34;101648.76;105594;1274;27778;-56
2022/10/18 10:37:08;;;;;;;;;30.00;25.00;;;;;22.53;59.47;101645.33;105642;1284;19979;-55
2022/10/18 10:39:35;;;;;;;;;29.00;26.50;;;;;22.56;59.40;101643.04;105595;1280;18037;-53
2022/10/18 10:42:02;;;;;;;;;24.50;24.50;;;;;22.58;59.18;101646.27;105669;1297;18505;-54
2022/10/18 10:44:29;;;;;;;;;28.00;24.50;;;;;22.59;59.22;101646.93;105586;1288;20387;-55
2022/10/18 10:46:56;;;;;;;;;21.50;18.00;;;;;22.59;59.23;101646.76;105607;1274;18106;-54
2022/10/18 10:49:24;;;;;;;;;19.00;18.00;;;;;22.60;59.32;101649.20;105565;1275;18660;-56
2022/10/18 10:51:51;;;;;;;;;19.00;19.00;;;;;22.60;59.34;101646.61;105580;1288;19072;-56
2022/10/18 10:54:20;;;;;;;;;16.00;15.00;;;;;22.60;59.29;101641.11;105618;1281;22109;-56
2022/10/18 10:56:47;;;;;;;;;18.00;14.00;;;;;22.62;59.36;101639.43;105632;1300;18497;-56
2022/10/18 10:59:14;;;;;;;;;14.00;13.50;;;;;22.63;59.16;101638.30;105643;1288;20037;-56
2022/10/18 11:01:42;;;;;;;;;14.00;13.50;;;;;22.63;59.48;101637.59;105670;1296;21562;-57
2022/10/18 11:04:09;;;;;;;;;15.00;14.00;;;;;22.62;59.25;101638.79;105589;1285;18501;-54
2022/10/18 11:06:37;;;;;;;;;15.00;14.00;;;;;22.63;59.44;101641.20;105673;1296;18731;-56
2022/10/18 11:09:04;;;;;;;;;16.00;15.00;;;;;22.62;59.53;101639.67;105700;1283;19667;-54